Lublin, Poland
Current Conditions -  °F | °C
As of 11:00 PM on Tuesday 25 Nov 2014 (Local Time) from EPLB Reporting Station
Light Rain Light Rain  
Wind Chill: 36°   Ceiling: 400
Heat Index: 36°   Visibility: 1.2mi
Dew Point: 34°   Wind: 2mph
Humidity: 93%   Direction: NA
Pressure: 30.33"   Gusts: NA
Location:  51.24°N, 22.57°E
Report Text: EPLB 252100Z VRB02KT 2000 -RADZ BR BKN004 OVC009 02/01 Q1027 REDZ
Loading
Personal Weather Stations






























Interactive Weather Map New forecast layout! Learn more

10-Day Weather Forecast

Advertisements
Track Severe Weather on mobile